sensor_id;sensor_type;location;lat;lon;timestamp;P1;P2;P0
73002;PMS5003;61184;54.356;-8.550;2023-03-05T00:01:10;4;4;
73002;PMS5003;61184;54.356;-8.550;2023-03-05T00:03:32;4;4;
73002;PMS5003;61184;54.356;-8.550;2023-03-05T00:05:57;6;5;
73002;PMS5003;61184;54.356;-8.550;2023-03-05T00:08:22;5;5;
73002;PMS5003;61184;54.356;-8.550;2023-03-05T00:10:54;4;4;
73002;PMS5003;61184;54.356;-8.550;2023-03-05T00:13:16;6;4;
73002;PMS5003;61184;54.356;-8.550;2023-03-05T00:18:04;4;4;
73002;PMS5003;61184;54.356;-8.550;2023-03-05T00:20:30;4;2;
73002;PMS5003;61184;54.356;-8.550;2023-03-05T00:22:56;4;4;
73002;PMS5003;61184;54.356;-8.550;2023-03-05T00:25:20;4;4;
73002;PMS5003;61184;54.356;-8.550;2023-03-05T00:27:46;6;4;
73002;PMS5003;61184;54.356;-8.550;2023-03-05T00:30:16;6;5;
73002;PMS5003;61184;54.356;-8.550;2023-03-05T00:32:37;4;4;
73002;PMS5003;61184;54.356;-8.550;2023-03-05T00:35:02;3;3;
73002;PMS5003;61184;54.356;-8.550;2023-03-05T00:37:28;4;4;
73002;PMS5003;61184;54.356;-8.550;2023-03-05T00:39:59;5;4;
73002;PMS5003;61184;54.356;-8.550;2023-03-05T00:42:19;5;4;
73002;PMS5003;61184;54.356;-8.550;2023-03-05T00:45:01;3;3;
73002;PMS5003;61184;54.356;-8.550;2023-03-05T00:47:10;5;5;
73002;PMS5003;61184;54.356;-8.550;2023-03-05T00:49:35;5;3;
73002;PMS5003;61184;54.356;-8.550;2023-03-05T00:52:01;5;5;
73002;PMS5003;61184;54.356;-8.550;2023-03-05T00:54:26;5;4;
73002;PMS5003;61184;54.356;-8.550;2023-03-05T00:56:52;6;6;
73002;PMS5003;61184;54.356;-8.550;2023-03-05T00:59:17;5;4;
73002;PMS5003;61184;54.356;-8.550;2023-03-05T01:01:43;4;4;
73002;PMS5003;61184;54.356;-8.550;2023-03-05T01:04:08;7;6;
73002;PMS5003;61184;54.356;-8.550;2023-03-05T01:06:34;2;2;
73002;PMS5003;61184;54.356;-8.550;2023-03-05T01:08:59;3;3;
73002;PMS5003;61184;54.356;-8.550;2023-03-05T01:11:24;4;4;
73002;PMS5003;61184;54.356;-8.550;2023-03-05T01:13:50;7;4;
73002;PMS5003;61184;54.356;-8.550;2023-03-05T01:16:16;3;3;
73002;PMS5003;61184;54.356;-8.550;2023-03-05T01:18:41;4;4;
73002;PMS5003;61184;54.356;-8.550;2023-03-05T01:21:06;4;4;
73002;PMS5003;61184;54.356;-8.550;2023-03-05T01:23:32;4;4;
73002;PMS5003;61184;54.356;-8.550;2023-03-05T01:25:58;4;4;
73002;PMS5003;61184;54.356;-8.550;2023-03-05T01:28:22;3;3;
73002;PMS5003;61184;54.356;-8.550;2023-03-05T01:30:48;3;3;
73002;PMS5003;61184;54.356;-8.550;2023-03-05T01:33:14;4;3;
73002;PMS5003;61184;54.356;-8.550;2023-03-05T01:35:39;6;6;
73002;PMS5003;61184;54.356;-8.550;2023-03-05T01:38:04;2;2;
73002;PMS5003;61184;54.356;-8.550;2023-03-05T01:40:32;3;3;
73002;PMS5003;61184;54.356;-8.550;2023-03-05T01:42:58;5;4;
73002;PMS5003;61184;54.356;-8.550;2023-03-05T01:45:21;7;7;
73002;PMS5003;61184;54.356;-8.550;2023-03-05T01:47:47;3;3;
73002;PMS5003;61184;54.356;-8.550;2023-03-05T01:50:13;6;5;
73002;PMS5003;61184;54.356;-8.550;2023-03-05T01:52:43;3;3;
73002;PMS5003;61184;54.356;-8.550;2023-03-05T01:55:04;8;5;
73002;PMS5003;61184;54.356;-8.550;2023-03-05T01:57:29;3;3;
73002;PMS5003;61184;54.356;-8.550;2023-03-05T01:59:55;3;3;
73002;PMS5003;61184;54.356;-8.550;2023-03-05T02:02:20;3;3;
73002;PMS5003;61184;54.356;-8.550;2023-03-05T02:04:47;5;5;
73002;PMS5003;61184;54.356;-8.550;2023-03-05T02:07:10;3;3;
73002;PMS5003;61184;54.356;-8.550;2023-03-05T02:09:37;4;4;
73002;PMS5003;61184;54.356;-8.550;2023-03-05T02:12:02;5;3;
73002;PMS5003;61184;54.356;-8.550;2023-03-05T02:14:27;4;4;
73002;PMS5003;61184;54.356;-8.550;2023-03-05T02:16:53;5;5;
73002;PMS5003;61184;54.356;-8.550;2023-03-05T02:19:18;3;3;
73002;PMS5003;61184;54.356;-8.550;2023-03-05T02:24:13;3;3;
73002;PMS5003;61184;54.356;-8.550;2023-03-05T02:26:35;3;3;
73002;PMS5003;61184;54.356;-8.550;2023-03-05T02:29:00;4;4;
73002;PMS5003;61184;54.356;-8.550;2023-03-05T02:31:32;3;3;
73002;PMS5003;61184;54.356;-8.550;2023-03-05T02:33:51;5;5;
73002;PMS5003;61184;54.356;-8.550;2023-03-05T02:36:17;3;3;
73002;PMS5003;61184;54.356;-8.550;2023-03-05T02:38:42;3;3;
73002;PMS5003;61184;54.356;-8.550;2023-03-05T02:41:08;5;3;
73002;PMS5003;61184;54.356;-8.550;2023-03-05T02:43:43;4;4;
73002;PMS5003;61184;54.356;-8.550;2023-03-05T02:45:59;4;3;
73002;PMS5003;61184;54.356;-8.550;2023-03-05T02:50:50;5;2;
73002;PMS5003;61184;54.356;-8.550;2023-03-05T02:53:16;4;4;
73002;PMS5003;61184;54.356;-8.550;2023-03-05T02:55:41;3;3;
73002;PMS5003;61184;54.356;-8.550;2023-03-05T02:58:10;4;4;
73002;PMS5003;61184;54.356;-8.550;2023-03-05T03:00:32;5;4;
73002;PMS5003;61184;54.356;-8.550;2023-03-05T03:03:01;4;4;
73002;PMS5003;61184;54.356;-8.550;2023-03-05T03:05:23;4;4;
73002;PMS5003;61184;54.356;-8.550;2023-03-05T03:07:48;4;4;
73002;PMS5003;61184;54.356;-8.550;2023-03-05T03:10:14;4;4;
73002;PMS5003;61184;54.356;-8.550;2023-03-05T03:12:42;4;4;
73002;PMS5003;61184;54.356;-8.550;2023-03-05T03:15:16;4;4;
73002;PMS5003;61184;54.356;-8.550;2023-03-05T03:17:30;3;3;
73002;PMS5003;61184;54.356;-8.550;2023-03-05T03:19:56;2;2;
73002;PMS5003;61184;54.356;-8.550;2023-03-05T03:22:22;2;2;
73002;PMS5003;61184;54.356;-8.550;2023-03-05T03:24:47;4;3;
73002;PMS5003;61184;54.356;-8.550;2023-03-05T03:27:17;4;4;
73002;PMS5003;61184;54.356;-8.550;2023-03-05T03:29:38;5;3;
73002;PMS5003;61184;54.356;-8.550;2023-03-05T03:32:03;3;3;
73002;PMS5003;61184;54.356;-8.550;2023-03-05T03:34:32;5;5;
73002;PMS5003;61184;54.356;-8.550;2023-03-05T03:36:54;3;3;
73002;PMS5003;61184;54.356;-8.550;2023-03-05T03:39:20;4;4;
73002;PMS5003;61184;54.356;-8.550;2023-03-05T03:41:46;2;2;
73002;PMS5003;61184;54.356;-8.550;2023-03-05T03:44:11;4;4;
73002;PMS5003;61184;54.356;-8.550;2023-03-05T03:49:02;2;2;
73002;PMS5003;61184;54.356;-8.550;2023-03-05T03:51:29;4;4;
73002;PMS5003;61184;54.356;-8.550;2023-03-05T03:53:53;2;2;
73002;PMS5003;61184;54.356;-8.550;2023-03-05T03:56:18;3;3;
73002;PMS5003;61184;54.356;-8.550;2023-03-05T03:58:45;2;2;
73002;PMS5003;61184;54.356;-8.550;2023-03-05T04:01:17;3;3;
73002;PMS5003;61184;54.356;-8.550;2023-03-05T04:03:35;4;4;
73002;PMS5003;61184;54.356;-8.550;2023-03-05T04:06:00;3;3;
73002;PMS5003;61184;54.356;-8.550;2023-03-05T04:08:30;3;3;
73002;PMS5003;61184;54.356;-8.550;2023-03-05T04:10:53;4;3;
73002;PMS5003;61184;54.356;-8.550;2023-03-05T04:13:17;5;4;
73002;PMS5003;61184;54.356;-8.550;2023-03-05T04:15:42;2;2;
73002;PMS5003;61184;54.356;-8.550;2023-03-05T04:18:08;2;2;
73002;PMS5003;61184;54.356;-8.550;2023-03-05T04:20:33;3;2;
73002;PMS5003;61184;54.356;-8.550;2023-03-05T04:23:01;4;4;
73002;PMS5003;61184;54.356;-8.550;2023-03-05T04:25:24;4;4;
73002;PMS5003;61184;54.356;-8.550;2023-03-05T04:27:49;2;2;
73002;PMS5003;61184;54.356;-8.550;2023-03-05T04:30:15;3;3;
73002;PMS5003;61184;54.356;-8.550;2023-03-05T04:32:50;3;3;
73002;PMS5003;61184;54.356;-8.550;2023-03-05T04:35:08;3;3;
73002;PMS5003;61184;54.356;-8.550;2023-03-05T04:37:31;4;4;
73002;PMS5003;61184;54.356;-8.550;2023-03-05T04:39:57;3;3;
73002;PMS5003;61184;54.356;-8.550;2023-03-05T04:42:25;4;3;
73002;PMS5003;61184;54.356;-8.550;2023-03-05T04:44:48;3;3;
73002;PMS5003;61184;54.356;-8.550;2023-03-05T04:47:17;2;2;
73002;PMS5003;61184;54.356;-8.550;2023-03-05T04:49:39;4;4;
73002;PMS5003;61184;54.356;-8.550;2023-03-05T04:52:05;4;4;
73002;PMS5003;61184;54.356;-8.550;2023-03-05T04:54:30;3;3;
73002;PMS5003;61184;54.356;-8.550;2023-03-05T04:57:01;1;1;
73002;PMS5003;61184;54.356;-8.550;2023-03-05T04:59:21;5;4;
73002;PMS5003;61184;54.356;-8.550;2023-03-05T05:01:46;6;4;
73002;PMS5003;61184;54.356;-8.550;2023-03-05T05:04:17;4;4;
73002;PMS5003;61184;54.356;-8.550;2023-03-05T05:06:37;3;2;
73002;PMS5003;61184;54.356;-8.550;2023-03-05T05:09:03;3;3;
73002;PMS5003;61184;54.356;-8.550;2023-03-05T05:11:29;2;2;
73002;PMS5003;61184;54.356;-8.550;2023-03-05T05:13:54;3;3;
73002;PMS5003;61184;54.356;-8.550;2023-03-05T05:16:19;4;4;
73002;PMS5003;61184;54.356;-8.550;2023-03-05T05:18:45;3;3;
73002;PMS5003;61184;54.356;-8.550;2023-03-05T05:21:11;4;4;
73002;PMS5003;61184;54.356;-8.550;2023-03-05T05:23:36;3;3;
73002;PMS5003;61184;54.356;-8.550;2023-03-05T05:26:02;4;4;
73002;PMS5003;61184;54.356;-8.550;2023-03-05T05:28:27;4;3;
73002;PMS5003;61184;54.356;-8.550;2023-03-05T05:30:53;2;2;
73002;PMS5003;61184;54.356;-8.550;2023-03-05T05:33:23;3;2;
73002;PMS5003;61184;54.356;-8.550;2023-03-05T05:35:45;2;1;
73002;PMS5003;61184;54.356;-8.550;2023-03-05T05:38:09;4;4;
73002;PMS5003;61184;54.356;-8.550;2023-03-05T05:40:34;3;1;
73002;PMS5003;61184;54.356;-8.550;2023-03-05T05:43:00;3;3;
73002;PMS5003;61184;54.356;-8.550;2023-03-05T05:47:51;5;5;
73002;PMS5003;61184;54.356;-8.550;2023-03-05T05:50:17;4;4;
73002;PMS5003;61184;54.356;-8.550;2023-03-05T05:52:42;1;1;
73002;PMS5003;61184;54.356;-8.550;2023-03-05T05:55:10;3;3;
73002;PMS5003;61184;54.356;-8.550;2023-03-05T05:57:33;3;3;
73002;PMS5003;61184;54.356;-8.550;2023-03-05T05:59:58;3;3;
73002;PMS5003;61184;54.356;-8.550;2023-03-05T06:02:24;2;2;
73002;PMS5003;61184;54.356;-8.550;2023-03-05T06:04:49;3;2;
73002;PMS5003;61184;54.356;-8.550;2023-03-05T06:07:15;3;3;
73002;PMS5003;61184;54.356;-8.550;2023-03-05T06:09:40;3;3;
73002;PMS5003;61184;54.356;-8.550;2023-03-05T06:12:12;2;2;
73002;PMS5003;61184;54.356;-8.550;2023-03-05T06:14:31;3;3;
73002;PMS5003;61184;54.356;-8.550;2023-03-05T06:16:57;1;1;
73002;PMS5003;61184;54.356;-8.550;2023-03-05T06:19:22;2;2;
73002;PMS5003;61184;54.356;-8.550;2023-03-05T06:21:49;3;3;
73002;PMS5003;61184;54.356;-8.550;2023-03-05T06:24:17;2;2;
73002;PMS5003;61184;54.356;-8.550;2023-03-05T06:26:40;2;2;
73002;PMS5003;61184;54.356;-8.550;2023-03-05T06:29:04;2;2;
73002;PMS5003;61184;54.356;-8.550;2023-03-05T06:31:30;3;3;
73002;PMS5003;61184;54.356;-8.550;2023-03-05T06:34:01;5;3;
73002;PMS5003;61184;54.356;-8.550;2023-03-05T06:36:21;3;3;
73002;PMS5003;61184;54.356;-8.550;2023-03-05T06:38:46;5;5;
73002;PMS5003;61184;54.356;-8.550;2023-03-05T06:41:12;3;3;
73002;PMS5003;61184;54.356;-8.550;2023-03-05T06:43:38;3;3;
73002;PMS5003;61184;54.356;-8.550;2023-03-05T06:46:03;2;2;
73002;PMS5003;61184;54.356;-8.550;2023-03-05T06:48:28;4;4;
73002;PMS5003;61184;54.356;-8.550;2023-03-05T06:50:54;3;3;
73002;PMS5003;61184;54.356;-8.550;2023-03-05T06:53:32;2;2;
73002;PMS5003;61184;54.356;-8.550;2023-03-05T06:55:45;2;2;
73002;PMS5003;61184;54.356;-8.550;2023-03-05T06:58:14;3;3;
73002;PMS5003;61184;54.356;-8.550;2023-03-05T07:00:36;1;1;
73002;PMS5003;61184;54.356;-8.550;2023-03-05T07:03:01;2;2;
73002;PMS5003;61184;54.356;-8.550;2023-03-05T07:05:27;4;3;
73002;PMS5003;61184;54.356;-8.550;2023-03-05T07:07:57;4;4;
73002;PMS5003;61184;54.356;-8.550;2023-03-05T07:10:18;2;2;
73002;PMS5003;61184;54.356;-8.550;2023-03-05T07:12:44;2;2;
73002;PMS5003;61184;54.356;-8.550;2023-03-05T07:15:09;3;3;
73002;PMS5003;61184;54.356;-8.550;2023-03-05T07:17:34;1;1;
73002;PMS5003;61184;54.356;-8.550;2023-03-05T07:20:01;5;5;
73002;PMS5003;61184;54.356;-8.550;2023-03-05T07:22:32;2;2;
73002;PMS5003;61184;54.356;-8.550;2023-03-05T07:24:51;2;2;
73002;PMS5003;61184;54.356;-8.550;2023-03-05T07:27:17;3;3;
73002;PMS5003;61184;54.356;-8.550;2023-03-05T07:29:42;2;2;
73002;PMS5003;61184;54.356;-8.550;2023-03-05T07:32:07;3;3;
73002;PMS5003;61184;54.356;-8.550;2023-03-05T07:34:33;2;2;
73002;PMS5003;61184;54.356;-8.550;2023-03-05T07:36:58;2;2;
73002;PMS5003;61184;54.356;-8.550;2023-03-05T07:41:49;3;3;
73002;PMS5003;61184;54.356;-8.550;2023-03-05T07:44:17;2;2;
73002;PMS5003;61184;54.356;-8.550;2023-03-05T07:46:41;2;2;
73002;PMS5003;61184;54.356;-8.550;2023-03-05T07:49:06;2;2;
73002;PMS5003;61184;54.356;-8.550;2023-03-05T07:51:32;3;3;
73002;PMS5003;61184;54.356;-8.550;2023-03-05T07:53:57;3;3;
73002;PMS5003;61184;54.356;-8.550;2023-03-05T07:56:23;3;3;
73002;PMS5003;61184;54.356;-8.550;2023-03-05T07:58:48;2;2;
73002;PMS5003;61184;54.356;-8.550;2023-03-05T08:01:14;2;2;
73002;PMS5003;61184;54.356;-8.550;2023-03-05T08:03:39;2;2;
73002;PMS5003;61184;54.356;-8.550;2023-03-05T08:06:05;3;3;
73002;PMS5003;61184;54.356;-8.550;2023-03-05T08:08:30;3;2;
73002;PMS5003;61184;54.356;-8.550;2023-03-05T08:11:01;2;2;
73002;PMS5003;61184;54.356;-8.550;2023-03-05T08:13:22;3;3;
73002;PMS5003;61184;54.356;-8.550;2023-03-05T08:15:47;3;3;
73002;PMS5003;61184;54.356;-8.550;2023-03-05T08:18:16;4;2;
73002;PMS5003;61184;54.356;-8.550;2023-03-05T08:20:38;5;4;
73002;PMS5003;61184;54.356;-8.550;2023-03-05T08:23:03;1;1;
73002;PMS5003;61184;54.356;-8.550;2023-03-05T08:25:29;3;3;
73002;PMS5003;61184;54.356;-8.550;2023-03-05T08:28:01;1;1;
73002;PMS5003;61184;54.356;-8.550;2023-03-05T08:30:20;2;2;
73002;PMS5003;61184;54.356;-8.550;2023-03-05T08:32:46;2;2;
73002;PMS5003;61184;54.356;-8.550;2023-03-05T08:35:12;2;2;
73002;PMS5003;61184;54.356;-8.550;2023-03-05T08:37:36;3;3;
73002;PMS5003;61184;54.356;-8.550;2023-03-05T08:40:02;1;1;
73002;PMS5003;61184;54.356;-8.550;2023-03-05T08:42:33;2;2;
73002;PMS5003;61184;54.356;-8.550;2023-03-05T08:44:52;6;1;
73002;PMS5003;61184;54.356;-8.550;2023-03-05T08:47:20;3;3;
73002;PMS5003;61184;54.356;-8.550;2023-03-05T08:49:44;2;2;
73002;PMS5003;61184;54.356;-8.550;2023-03-05T08:52:09;3;3;
73002;PMS5003;61184;54.356;-8.550;2023-03-05T08:54:35;5;3;
73002;PMS5003;61184;54.356;-8.550;2023-03-05T08:57:00;3;3;
73002;PMS5003;61184;54.356;-8.550;2023-03-05T08:59:29;2;2;
73002;PMS5003;61184;54.356;-8.550;2023-03-05T09:01:54;2;2;
73002;PMS5003;61184;54.356;-8.550;2023-03-05T09:04:17;2;2;
73002;PMS5003;61184;54.356;-8.550;2023-03-05T09:09:07;3;3;
73002;PMS5003;61184;54.356;-8.550;2023-03-05T09:11:33;2;2;
73002;PMS5003;61184;54.356;-8.550;2023-03-05T09:13:58;2;2;
73002;PMS5003;61184;54.356;-8.550;2023-03-05T09:16:24;4;3;
73002;PMS5003;61184;54.356;-8.550;2023-03-05T09:18:49;2;2;
73002;PMS5003;61184;54.356;-8.550;2023-03-05T09:21:16;4;4;
73002;PMS5003;61184;54.356;-8.550;2023-03-05T09:23:42;4;3;
73002;PMS5003;61184;54.356;-8.550;2023-03-05T09:26:07;3;3;
73002;PMS5003;61184;54.356;-8.550;2023-03-05T09:28:32;3;2;
73002;PMS5003;61184;54.356;-8.550;2023-03-05T09:31:00;3;3;
73002;PMS5003;61184;54.356;-8.550;2023-03-05T09:33:22;2;2;
73002;PMS5003;61184;54.356;-8.550;2023-03-05T09:35:48;5;5;
73002;PMS5003;61184;54.356;-8.550;2023-03-05T09:38:14;3;2;
73002;PMS5003;61184;54.356;-8.550;2023-03-05T09:40:43;1;1;
73002;PMS5003;61184;54.356;-8.550;2023-03-05T09:43:07;1;1;
73002;PMS5003;61184;54.356;-8.550;2023-03-05T09:45:32;2;2;
73002;PMS5003;61184;54.356;-8.550;2023-03-05T09:47:58;2;2;
73002;PMS5003;61184;54.356;-8.550;2023-03-05T09:50:27;3;3;
73002;PMS5003;61184;54.356;-8.550;2023-03-05T09:52:49;4;3;
73002;PMS5003;61184;54.356;-8.550;2023-03-05T09:55:13;4;3;
73002;PMS5003;61184;54.356;-8.550;2023-03-05T09:57:38;3;3;
73002;PMS5003;61184;54.356;-8.550;2023-03-05T10:00:13;2;2;
73002;PMS5003;61184;54.356;-8.550;2023-03-05T10:02:29;3;3;
73002;PMS5003;61184;54.356;-8.550;2023-03-05T10:04:59;4;4;
73002;PMS5003;61184;54.356;-8.550;2023-03-05T10:07:20;1;1;
73002;PMS5003;61184;54.356;-8.550;2023-03-05T10:09:47;1;1;
73002;PMS5003;61184;54.356;-8.550;2023-03-05T10:12:13;1;1;
73002;PMS5003;61184;54.356;-8.550;2023-03-05T10:14:37;6;5;
73002;PMS5003;61184;54.356;-8.550;2023-03-05T10:17:04;1;1;
73002;PMS5003;61184;54.356;-8.550;2023-03-05T10:21:59;2;2;
73002;PMS5003;61184;54.356;-8.550;2023-03-05T10:24:19;2;2;
73002;PMS5003;61184;54.356;-8.550;2023-03-05T10:29:15;3;3;
73002;PMS5003;61184;54.356;-8.550;2023-03-05T10:34:04;5;3;
73002;PMS5003;61184;54.356;-8.550;2023-03-05T10:36:32;0;0;
73002;PMS5003;61184;54.356;-8.550;2023-03-05T10:38:54;3;2;
73002;PMS5003;61184;54.356;-8.550;2023-03-05T10:41:20;4;3;
73002;PMS5003;61184;54.356;-8.550;2023-03-05T10:43:45;4;3;
73002;PMS5003;61184;54.356;-8.550;2023-03-05T10:46:08;5;4;
73002;PMS5003;61184;54.356;-8.550;2023-03-05T10:48:34;3;3;
73002;PMS5003;61184;54.356;-8.550;2023-03-05T10:51:00;2;2;
73002;PMS5003;61184;54.356;-8.550;2023-03-05T10:53:25;2;2;
73002;PMS5003;61184;54.356;-8.550;2023-03-05T10:55:50;2;2;
73002;PMS5003;61184;54.356;-8.550;2023-03-05T10:58:16;2;2;
73002;PMS5003;61184;54.356;-8.550;2023-03-05T11:00:42;1;1;
73002;PMS5003;61184;54.356;-8.550;2023-03-05T11:03:06;1;1;
73002;PMS5003;61184;54.356;-8.550;2023-03-05T11:07:57;2;2;
73002;PMS5003;61184;54.356;-8.550;2023-03-05T11:10:23;3;3;
73002;PMS5003;61184;54.356;-8.550;2023-03-05T11:12:48;2;2;
73002;PMS5003;61184;54.356;-8.550;2023-03-05T11:15:25;3;3;
73002;PMS5003;61184;54.356;-8.550;2023-03-05T11:17:41;2;2;
73002;PMS5003;61184;54.356;-8.550;2023-03-05T11:22:33;2;2;
73002;PMS5003;61184;54.356;-8.550;2023-03-05T11:27:23;1;1;
73002;PMS5003;61184;54.356;-8.550;2023-03-05T11:29:47;2;2;
73002;PMS5003;61184;54.356;-8.550;2023-03-05T11:34:38;4;2;
73002;PMS5003;61184;54.356;-8.550;2023-03-05T11:37:04;3;3;
73002;PMS5003;61184;54.356;-8.550;2023-03-05T11:39:32;2;2;
73002;PMS5003;61184;54.356;-8.550;2023-03-05T11:41:55;2;2;
73002;PMS5003;61184;54.356;-8.550;2023-03-05T11:44:20;2;2;
73002;PMS5003;61184;54.356;-8.550;2023-03-05T11:46:46;0;0;
73002;PMS5003;61184;54.356;-8.550;2023-03-05T11:49:12;4;4;
73002;PMS5003;61184;54.356;-8.550;2023-03-05T11:51:39;3;3;
73002;PMS5003;61184;54.356;-8.550;2023-03-05T11:54:05;1;1;
73002;PMS5003;61184;54.356;-8.550;2023-03-05T11:56:29;2;2;
73002;PMS5003;61184;54.356;-8.550;2023-03-05T11:58:56;2;2;
73002;PMS5003;61184;54.356;-8.550;2023-03-05T12:01:19;4;3;
73002;PMS5003;61184;54.356;-8.550;2023-03-05T12:03:44;2;2;
73002;PMS5003;61184;54.356;-8.550;2023-03-05T12:06:13;1;1;
73002;PMS5003;61184;54.356;-8.550;2023-03-05T12:08:37;1;1;
73002;PMS5003;61184;54.356;-8.550;2023-03-05T12:11:03;2;2;
73002;PMS5003;61184;54.356;-8.550;2023-03-05T12:13:27;2;1;
73002;PMS5003;61184;54.356;-8.550;2023-03-05T12:15:59;1;1;
73002;PMS5003;61184;54.356;-8.550;2023-03-05T12:18:19;1;1;
73002;PMS5003;61184;54.356;-8.550;2023-03-05T12:20:44;1;1;
73002;PMS5003;61184;54.356;-8.550;2023-03-05T12:23:11;2;2;
73002;PMS5003;61184;54.356;-8.550;2023-03-05T12:25:43;1;1;
73002;PMS5003;61184;54.356;-8.550;2023-03-05T12:27:59;0;0;
73002;PMS5003;61184;54.356;-8.550;2023-03-05T12:30:34;2;1;
73002;PMS5003;61184;54.356;-8.550;2023-03-05T12:32:51;1;0;
73002;PMS5003;61184;54.356;-8.550;2023-03-05T12:35:23;3;1;
73002;PMS5003;61184;54.356;-8.550;2023-03-05T12:42:41;1;1;
73002;PMS5003;61184;54.356;-8.550;2023-03-05T12:47:24;1;1;
73002;PMS5003;61184;54.356;-8.550;2023-03-05T12:49:48;0;0;
73002;PMS5003;61184;54.356;-8.550;2023-03-05T12:54:41;1;1;
73002;PMS5003;61184;54.356;-8.550;2023-03-05T12:57:05;3;2;
73002;PMS5003;61184;54.356;-8.550;2023-03-05T12:59:34;1;1;
73002;PMS5003;61184;54.356;-8.550;2023-03-05T13:02:01;1;1;
73002;PMS5003;61184;54.356;-8.550;2023-03-05T13:04:22;1;1;
73002;PMS5003;61184;54.356;-8.550;2023-03-05T13:06:47;1;1;
73002;PMS5003;61184;54.356;-8.550;2023-03-05T13:09:16;1;1;
73002;PMS5003;61184;54.356;-8.550;2023-03-05T13:11:37;1;1;
73002;PMS5003;61184;54.356;-8.550;2023-03-05T13:14:03;1;1;
73002;PMS5003;61184;54.356;-8.550;2023-03-05T13:16:29;1;1;
73002;PMS5003;61184;54.356;-8.550;2023-03-05T13:18:55;1;1;
73002;PMS5003;61184;54.356;-8.550;2023-03-05T13:21:20;2;2;
73002;PMS5003;61184;54.356;-8.550;2023-03-05T13:23:46;1;1;
73002;PMS5003;61184;54.356;-8.550;2023-03-05T13:26:11;1;1;
73002;PMS5003;61184;54.356;-8.550;2023-03-05T13:28:36;1;1;
73002;PMS5003;61184;54.356;-8.550;2023-03-05T13:31:02;1;1;
73002;PMS5003;61184;54.356;-8.550;2023-03-05T13:33:27;3;3;
73002;PMS5003;61184;54.356;-8.550;2023-03-05T13:35:52;4;2;
73002;PMS5003;61184;54.356;-8.550;2023-03-05T13:38:21;1;1;
73002;PMS5003;61184;54.356;-8.550;2023-03-05T13:40:43;0;0;
73002;PMS5003;61184;54.356;-8.550;2023-03-05T13:43:09;1;1;
73002;PMS5003;61184;54.356;-8.550;2023-03-05T13:45:34;2;2;
73002;PMS5003;61184;54.356;-8.550;2023-03-05T13:48:00;1;1;
73002;PMS5003;61184;54.356;-8.550;2023-03-05T13:50:26;0;0;
73002;PMS5003;61184;54.356;-8.550;2023-03-05T13:52:51;2;2;
73002;PMS5003;61184;54.356;-8.550;2023-03-05T13:55:17;0;0;
73002;PMS5003;61184;54.356;-8.550;2023-03-05T13:57:44;0;0;
73002;PMS5003;61184;54.356;-8.550;2023-03-05T14:02:35;0;0;
73002;PMS5003;61184;54.356;-8.550;2023-03-05T14:04:58;1;1;
73002;PMS5003;61184;54.356;-8.550;2023-03-05T14:07:28;0;0;
73002;PMS5003;61184;54.356;-8.550;2023-03-05T14:09:49;1;1;
73002;PMS5003;61184;54.356;-8.550;2023-03-05T14:14:40;4;1;
73002;PMS5003;61184;54.356;-8.550;2023-03-05T14:19:33;1;1;
73002;PMS5003;61184;54.356;-8.550;2023-03-05T14:21:57;1;1;
73002;PMS5003;61184;54.356;-8.550;2023-03-05T14:24:23;1;1;
73002;PMS5003;61184;54.356;-8.550;2023-03-05T14:26:49;2;2;
73002;PMS5003;61184;54.356;-8.550;2023-03-05T14:29:15;1;1;
73002;PMS5003;61184;54.356;-8.550;2023-03-05T14:34:05;1;1;
73002;PMS5003;61184;54.356;-8.550;2023-03-05T14:36:30;1;1;
73002;PMS5003;61184;54.356;-8.550;2023-03-05T14:38:55;0;0;
73002;PMS5003;61184;54.356;-8.550;2023-03-05T14:41:26;0;0;
73002;PMS5003;61184;54.356;-8.550;2023-03-05T14:43:47;0;0;
73002;PMS5003;61184;54.356;-8.550;2023-03-05T14:46:12;0;0;
73002;PMS5003;61184;54.356;-8.550;2023-03-05T14:48:37;2;2;
73002;PMS5003;61184;54.356;-8.550;2023-03-05T14:51:03;1;1;
73002;PMS5003;61184;54.356;-8.550;2023-03-05T14:53:29;0;0;
73002;PMS5003;61184;54.356;-8.550;2023-03-05T14:55:54;0;0;
73002;PMS5003;61184;54.356;-8.550;2023-03-05T14:58:20;1;1;
73002;PMS5003;61184;54.356;-8.550;2023-03-05T15:00:46;0;0;
73002;PMS5003;61184;54.356;-8.550;2023-03-05T15:03:10;0;0;
73002;PMS5003;61184;54.356;-8.550;2023-03-05T15:05:35;2;0;
73002;PMS5003;61184;54.356;-8.550;2023-03-05T15:08:01;3;0;
73002;PMS5003;61184;54.356;-8.550;2023-03-05T15:10:26;0;0;
73002;PMS5003;61184;54.356;-8.550;2023-03-05T15:12:55;0;0;
73002;PMS5003;61184;54.356;-8.550;2023-03-05T15:15:18;0;0;
73002;PMS5003;61184;54.356;-8.550;2023-03-05T15:17:44;0;0;
73002;PMS5003;61184;54.356;-8.550;2023-03-05T15:20:10;1;1;
73002;PMS5003;61184;54.356;-8.550;2023-03-05T15:22:34;0;0;
73002;PMS5003;61184;54.356;-8.550;2023-03-05T15:24:59;1;1;
73002;PMS5003;61184;54.356;-8.550;2023-03-05T15:27:26;1;1;
73002;PMS5003;61184;54.356;-8.550;2023-03-05T15:29:50;0;0;
73002;PMS5003;61184;54.356;-8.550;2023-03-05T15:32:17;0;0;
73002;PMS5003;61184;54.356;-8.550;2023-03-05T15:34:41;0;0;
73002;PMS5003;61184;54.356;-8.550;2023-03-05T15:37:07;0;0;
73002;PMS5003;61184;54.356;-8.550;2023-03-05T15:39:32;1;1;
73002;PMS5003;61184;54.356;-8.550;2023-03-05T15:41:58;1;1;
73002;PMS5003;61184;54.356;-8.550;2023-03-05T15:44:23;2;0;
73002;PMS5003;61184;54.356;-8.550;2023-03-05T15:46:49;0;0;
73002;PMS5003;61184;54.356;-8.550;2023-03-05T15:49:15;0;0;
73002;PMS5003;61184;54.356;-8.550;2023-03-05T15:51:40;0;0;
73002;PMS5003;61184;54.356;-8.550;2023-03-05T15:54:05;1;1;
73002;PMS5003;61184;54.356;-8.550;2023-03-05T15:56:36;3;1;
73002;PMS5003;61184;54.356;-8.550;2023-03-05T15:58:57;0;0;
73002;PMS5003;61184;54.356;-8.550;2023-03-05T16:01:22;1;1;
73002;PMS5003;61184;54.356;-8.550;2023-03-05T16:03:47;1;0;
73002;PMS5003;61184;54.356;-8.550;2023-03-05T16:06:18;0;0;
73002;PMS5003;61184;54.356;-8.550;2023-03-05T16:08:38;1;1;
73002;PMS5003;61184;54.356;-8.550;2023-03-05T16:11:07;1;1;
73002;PMS5003;61184;54.356;-8.550;2023-03-05T16:13:31;1;1;
73002;PMS5003;61184;54.356;-8.550;2023-03-05T16:15:55;0;0;
73002;PMS5003;61184;54.356;-8.550;2023-03-05T16:18:20;3;1;
73002;PMS5003;61184;54.356;-8.550;2023-03-05T16:20:45;1;1;
73002;PMS5003;61184;54.356;-8.550;2023-03-05T16:23:11;1;1;
73002;PMS5003;61184;54.356;-8.550;2023-03-05T16:25:38;2;2;
73002;PMS5003;61184;54.356;-8.550;2023-03-05T16:28:03;0;0;
73002;PMS5003;61184;54.356;-8.550;2023-03-05T16:30:27;1;0;
73002;PMS5003;61184;54.356;-8.550;2023-03-05T16:32:55;2;0;
73002;PMS5003;61184;54.356;-8.550;2023-03-05T16:35:18;1;1;
73002;PMS5003;61184;54.356;-8.550;2023-03-05T16:37:44;1;1;
73002;PMS5003;61184;54.356;-8.550;2023-03-05T16:40:10;2;0;
73002;PMS5003;61184;54.356;-8.550;2023-03-05T16:42:35;1;1;
73002;PMS5003;61184;54.356;-8.550;2023-03-05T16:45:00;0;0;
73002;PMS5003;61184;54.356;-8.550;2023-03-05T16:47:27;1;1;
73002;PMS5003;61184;54.356;-8.550;2023-03-05T16:49:51;0;0;
73002;PMS5003;61184;54.356;-8.550;2023-03-05T16:52:17;0;0;
73002;PMS5003;61184;54.356;-8.550;2023-03-05T16:54:42;0;0;
73002;PMS5003;61184;54.356;-8.550;2023-03-05T16:57:08;1;1;
73002;PMS5003;61184;54.356;-8.550;2023-03-05T16:59:33;0;0;
73002;PMS5003;61184;54.356;-8.550;2023-03-05T17:01:59;0;0;
73002;PMS5003;61184;54.356;-8.550;2023-03-05T17:04:24;0;0;
73002;PMS5003;61184;54.356;-8.550;2023-03-05T17:06:50;2;0;
73002;PMS5003;61184;54.356;-8.550;2023-03-05T17:09:15;0;0;
73002;PMS5003;61184;54.356;-8.550;2023-03-05T17:11:41;1;1;
73002;PMS5003;61184;54.356;-8.550;2023-03-05T17:14:06;1;1;